Terminal Aerodrome Forecast
Issued by NWS

Home | Current Version | Previous Version | Text Only | Print | Product List | Glossary On
Versions: 1 2 3 4 5 6 7 8 9 10 11 12 13 14 15 16 17 18 19
000
FTUS46 KSGX 252324
TAFCRQ
TAF
KCRQ 252324Z 2600/2624 24009KT P6SM OVC014
     FM260200 VRB04KT P6SM OVC012
     FM262000 27009KT P6SM BKN013=

USA.gov is the U.S. government's official web portal to all federal, state and local government web resources and services.